Shimojishima, Shimojishima Airport (RORS)

NameShimojishima Airport
CityShimojishima
CountryJapan
ICAORORS
IATASHI
Altitude2 m
CoordinatesGoogle Map
Live Air TrafficLiveATC.net
METARRORS 180100Z 06013KT 9999 FEW040 SCT048 19/09 Q1025
2019-01-18 01:00:00 Wind: Northeast (60°) 6.69 m/s - Visibility: > 10000 m - Temperature: 19 °C - Dew point: 9 °C - Humidity: 52.5% - Pressure: 1025 hPa
Statistics

The table below shows the detailed information of all flights to/from Shimojishima, Shimojishima Airport (RORS).